createdAt,value
2024-03-12T00:00:13.595Z,87763.00
2024-03-12T00:01:13.758Z,87765.00
2024-03-12T00:02:13.606Z,87764.00
2024-03-12T00:03:13.613Z,87766.00
2024-03-12T00:04:13.679Z,87765.00
2024-03-12T00:05:13.645Z,87768.00
2024-03-12T00:06:13.632Z,87768.00
2024-03-12T00:07:13.667Z,87771.00
2024-03-12T00:08:13.634Z,87772.00
2024-03-12T00:09:13.628Z,87771.00
2024-03-12T00:10:13.667Z,87773.00
2024-03-12T00:11:13.647Z,87775.00
2024-03-12T00:12:13.625Z,87776.00
2024-03-12T00:13:13.666Z,87776.00
2024-03-12T00:14:13.634Z,87777.00
2024-03-12T00:15:13.625Z,87775.00
2024-03-12T00:16:13.658Z,87775.00
2024-03-12T00:17:13.662Z,87776.00
2024-03-12T00:18:13.663Z,87776.00
2024-03-12T00:19:13.737Z,87778.00
2024-03-12T00:20:13.633Z,87782.00
2024-03-12T00:21:13.641Z,87783.00
2024-03-12T00:22:13.714Z,87782.00
2024-03-12T00:23:13.650Z,87781.00
2024-03-12T00:24:13.626Z,87782.00
2024-03-12T00:25:13.621Z,87782.00
2024-03-12T00:26:13.620Z,87783.00
2024-03-12T00:27:13.625Z,87782.00
2024-03-12T00:28:13.694Z,87784.00
2024-03-12T00:29:13.659Z,87781.00
2024-03-12T00:30:13.619Z,87784.00
2024-03-12T00:31:13.644Z,87787.00
2024-03-12T00:32:13.629Z,87785.00
2024-03-12T00:33:13.877Z,87786.00
2024-03-12T00:34:13.644Z,87786.00
2024-03-12T00:35:13.608Z,87784.00
2024-03-12T00:36:13.610Z,87786.00
2024-03-12T00:37:13.655Z,87787.00
2024-03-12T00:38:13.611Z,87786.00
2024-03-12T00:39:13.613Z,87787.00
2024-03-12T00:40:13.712Z,87788.00
2024-03-12T00:41:13.603Z,87788.00
2024-03-12T00:42:13.621Z,87787.00
2024-03-12T00:43:13.758Z,87787.00
2024-03-12T00:44:13.722Z,87787.00
2024-03-12T00:45:13.713Z,87784.00
2024-03-12T00:46:13.865Z,87783.00
2024-03-12T00:47:13.777Z,87786.00
2024-03-12T00:48:13.906Z,87786.00
2024-03-12T00:49:13.881Z,87787.00
2024-03-12T00:50:13.899Z,87786.00
2024-03-12T00:51:13.885Z,87784.00
2024-03-12T00:52:13.866Z,87784.00
2024-03-12T00:53:13.873Z,87788.00
2024-03-12T00:54:13.870Z,87786.00
2024-03-12T00:55:13.880Z,87786.00
2024-03-12T00:56:13.874Z,87787.00
2024-03-12T00:57:13.856Z,87786.00
2024-03-12T00:58:14.015Z,87788.00
2024-03-12T00:59:13.857Z,87786.00
2024-03-12T01:00:13.840Z,87786.00
2024-03-12T01:01:13.895Z,87786.00
2024-03-12T01:02:13.851Z,87788.00
2024-03-12T01:03:13.838Z,87786.00
2024-03-12T01:04:13.875Z,87789.00
2024-03-12T01:05:13.839Z,87791.00
2024-03-12T01:06:13.824Z,87792.00
2024-03-12T01:07:13.836Z,87792.00
2024-03-12T01:08:13.937Z,87794.00
2024-03-12T01:09:13.873Z,87796.00
2024-03-12T01:10:13.952Z,87795.00
2024-03-12T01:11:13.990Z,87795.00
2024-03-12T01:12:13.989Z,87796.00
2024-03-12T01:13:14.059Z,87797.00
2024-03-12T01:14:14.063Z,87798.00
2024-03-12T01:15:14.074Z,87800.00
2024-03-12T01:16:14.222Z,87801.00
2024-03-12T01:17:14.143Z,87802.00
2024-03-12T01:18:14.207Z,87801.00
2024-03-12T01:19:14.213Z,87801.00
2024-03-12T01:20:14.254Z,87799.00
2024-03-12T01:21:14.305Z,87801.00
2024-03-12T01:22:14.319Z,87802.00
2024-03-12T01:23:14.329Z,87803.00
2024-03-12T01:24:14.383Z,87804.00
2024-03-12T01:25:14.434Z,87804.00
2024-03-12T01:26:14.418Z,87806.00
2024-03-12T01:27:14.459Z,87806.00
2024-03-12T01:28:14.517Z,87806.00
2024-03-12T01:29:14.535Z,87807.00
2024-03-12T01:30:14.545Z,87806.00
2024-03-12T01:31:14.570Z,87803.00
2024-03-12T01:32:14.530Z,87803.00
2024-03-12T01:33:14.564Z,87802.00
2024-03-12T01:34:14.646Z,87804.00
2024-03-12T01:35:14.546Z,87804.00
2024-03-12T01:36:14.562Z,87804.00
2024-03-12T01:37:14.624Z,87805.00
2024-03-12T01:38:14.551Z,87808.00
2024-03-12T01:39:14.548Z,87806.00
2024-03-12T01:40:14.577Z,87808.00
2024-03-12T01:41:14.579Z,87810.00
2024-03-12T01:42:14.578Z,87810.00
2024-03-12T01:43:14.836Z,87808.00
2024-03-12T01:44:14.582Z,87808.00
2024-03-12T01:45:14.579Z,87811.00
2024-03-12T01:46:14.575Z,87811.00
2024-03-12T01:47:14.555Z,87814.00
2024-03-12T01:48:14.571Z,87815.00
2024-03-12T01:49:14.564Z,87814.00
2024-03-12T01:50:14.573Z,87817.00
2024-03-12T01:51:14.551Z,87819.00
2024-03-12T01:52:14.563Z,87820.00
2024-03-12T01:53:14.587Z,87822.00
2024-03-12T01:54:14.562Z,87822.00
2024-03-12T01:55:14.561Z,87823.00
2024-03-12T01:56:14.568Z,87823.00
2024-03-12T01:57:14.546Z,87822.00
2024-03-12T01:58:14.620Z,87826.00
2024-03-12T01:59:14.553Z,87828.00
2024-03-12T02:00:14.752Z,87831.00
2024-03-12T02:01:14.560Z,87833.00
2024-03-12T02:02:14.540Z,87837.00
2024-03-12T02:03:14.547Z,87835.00
2024-03-12T02:04:14.534Z,87837.00
2024-03-12T02:05:14.551Z,87842.00
2024-03-12T02:06:14.552Z,87844.00
2024-03-12T02:07:14.633Z,87847.00
2024-03-12T02:08:14.599Z,87850.00
2024-03-12T02:09:14.646Z,87851.00
2024-03-12T02:10:14.668Z,87851.00
2024-03-12T02:11:14.718Z,87852.00
2024-03-12T02:12:14.704Z,87853.00
2024-03-12T02:13:14.797Z,87854.00
2024-03-12T02:14:14.756Z,87854.00
2024-03-12T02:15:14.776Z,87855.00
2024-03-12T02:16:14.869Z,87854.00
2024-03-12T02:17:14.837Z,87856.00
2024-03-12T02:18:14.922Z,87858.00
2024-03-12T02:19:14.882Z,87858.00
2024-03-12T02:20:14.913Z,87859.00
2024-03-12T02:21:14.941Z,87859.00
2024-03-12T02:22:14.975Z,87860.00
2024-03-12T02:23:15.026Z,87857.00
2024-03-12T02:24:15.045Z,87860.00
2024-03-12T02:25:15.094Z,87860.00
2024-03-12T02:26:15.127Z,87862.00
2024-03-12T02:27:15.167Z,87861.00
2024-03-12T02:28:15.234Z,87860.00
2024-03-12T02:29:15.254Z,87861.00
2024-03-12T02:30:15.331Z,87861.00
2024-03-12T02:31:15.377Z,87862.00
2024-03-12T02:32:15.333Z,87863.00
2024-03-12T02:33:15.474Z,87863.00
2024-03-12T02:34:15.396Z,87864.00
2024-03-12T02:35:15.419Z,87860.00
2024-03-12T02:36:15.478Z,87862.00
2024-03-12T02:37:15.494Z,87863.00
2024-03-12T02:38:15.537Z,87862.00
2024-03-12T02:39:15.723Z,87863.00
2024-03-12T02:40:16.781Z,87862.00
2024-03-12T02:41:15.662Z,87863.00
2024-03-12T02:42:15.679Z,87862.00
2024-03-12T02:43:15.764Z,87863.00
2024-03-12T02:44:15.765Z,87862.00
2024-03-12T02:45:16.901Z,87860.00
2024-03-12T02:46:15.923Z,87859.00
2024-03-12T02:47:15.895Z,87858.00
2024-03-12T02:48:15.936Z,87860.00
2024-03-12T02:49:15.982Z,87861.00
2024-03-12T02:50:16.028Z,87861.00
2024-03-12T02:51:16.041Z,87858.00
2024-03-12T02:52:16.087Z,87857.00
2024-03-12T02:53:16.154Z,87860.00
2024-03-12T02:54:16.177Z,87859.00
2024-03-12T02:55:16.302Z,87859.00
2024-03-12T02:56:16.259Z,87858.00
2024-03-12T02:57:16.337Z,87857.00
2024-03-12T02:58:16.380Z,87860.00
2024-03-12T02:59:16.385Z,87861.00
2024-03-12T03:00:16.717Z,87862.00
2024-03-12T03:01:16.530Z,87862.00
2024-03-12T03:02:16.502Z,87860.00
2024-03-12T03:03:16.547Z,87860.00
2024-03-12T03:04:16.594Z,87860.00
2024-03-12T03:05:16.682Z,87860.00
2024-03-12T03:06:16.667Z,87860.00
2024-03-12T03:07:16.707Z,87858.00
2024-03-12T03:08:16.750Z,87856.00
2024-03-12T03:09:16.770Z,87858.00
2024-03-12T03:10:16.888Z,87856.00
2024-03-12T03:11:16.873Z,87856.00
2024-03-12T03:12:16.880Z,87854.00
2024-03-12T03:13:16.940Z,87855.00
2024-03-12T03:14:16.958Z,87859.00
2024-03-12T03:15:17.000Z,87861.00
2024-03-12T03:16:17.021Z,87863.00
2024-03-12T03:17:17.063Z,87863.00
2024-03-12T03:18:17.192Z,87865.00
2024-03-12T03:19:17.138Z,87864.00
2024-03-12T03:20:17.249Z,87867.00
2024-03-12T03:21:17.199Z,87868.00
2024-03-12T03:22:17.310Z,87867.00
2024-03-12T03:23:17.229Z,87867.00
2024-03-12T03:24:17.247Z,87870.00
2024-03-12T03:25:17.337Z,87874.00
2024-03-12T03:26:17.255Z,87873.00
2024-03-12T03:27:17.298Z,87873.00
2024-03-12T03:28:17.302Z,87871.00
2024-03-12T03:29:17.346Z,87871.00
2024-03-12T03:30:17.384Z,87873.00
2024-03-12T03:31:17.475Z,87872.00
2024-03-12T03:32:17.519Z,87877.00
2024-03-12T03:33:17.601Z,87879.00
2024-03-12T03:34:17.782Z,87879.00
2024-03-12T03:35:17.721Z,87881.00
2024-03-12T03:36:17.804Z,87878.00
2024-03-12T03:37:17.885Z,87876.00
2024-03-12T03:38:17.935Z,87875.00
2024-03-12T03:39:18.023Z,87875.00
2024-03-12T03:40:18.090Z,87874.00
2024-03-12T03:41:18.098Z,87880.00
2024-03-12T03:42:18.113Z,87875.00
2024-03-12T03:43:18.140Z,87880.00
2024-03-12T03:44:18.175Z,87882.00
2024-03-12T03:45:18.184Z,87882.00
2024-03-12T03:46:18.190Z,87883.00
2024-03-12T03:47:18.242Z,87882.00
2024-03-12T03:48:18.253Z,87880.00
2024-03-12T03:49:18.287Z,87881.00
2024-03-12T03:50:18.320Z,87881.00
2024-03-12T03:51:18.384Z,87881.00
2024-03-12T03:52:18.393Z,87880.00
2024-03-12T03:53:18.429Z,87882.00
2024-03-12T03:54:18.482Z,87882.00
2024-03-12T03:55:18.595Z,87883.00
2024-03-12T03:56:18.553Z,87885.00
2024-03-12T03:57:18.601Z,87885.00
2024-03-12T03:58:18.645Z,87885.00
2024-03-12T03:59:18.708Z,87883.00
2024-03-12T04:00:18.743Z,87884.00
2024-03-12T04:01:18.846Z,87884.00
2024-03-12T04:02:18.849Z,87883.00
2024-03-12T04:03:18.918Z,87884.00
2024-03-12T04:04:18.988Z,87884.00
2024-03-12T04:05:19.026Z,87881.00
2024-03-12T04:06:19.095Z,87882.00
2024-03-12T04:07:19.171Z,87881.00
2024-03-12T04:08:19.257Z,87881.00
2024-03-12T04:09:19.303Z,87885.00
2024-03-12T04:10:19.583Z,87884.00
2024-03-12T04:11:19.500Z,87884.00
2024-03-12T04:12:19.552Z,87886.00
2024-03-12T04:13:19.636Z,87887.00
2024-03-12T04:14:19.749Z,87886.00
2024-03-12T04:15:19.733Z,87886.00
2024-03-12T04:16:19.819Z,87885.00
2024-03-12T04:17:19.884Z,87886.00
2024-03-12T04:18:20.139Z,87886.00
2024-03-12T04:19:20.090Z,87886.00
2024-03-12T04:20:20.130Z,87886.00
2024-03-12T04:21:20.199Z,87891.00
2024-03-12T04:22:20.292Z,87890.00
2024-03-12T04:23:20.367Z,87890.00
2024-03-12T04:24:20.451Z,87892.00
2024-03-12T04:25:20.529Z,87892.00
2024-03-12T04:26:20.623Z,87893.00
2024-03-12T04:27:20.736Z,87895.00
2024-03-12T04:28:20.891Z,87898.00
2024-03-12T04:29:20.882Z,87896.00
2024-03-12T04:30:20.957Z,87900.00
2024-03-12T04:31:21.035Z,87899.00
2024-03-12T04:32:21.136Z,87899.00
2024-03-12T04:33:21.237Z,87899.00
2024-03-12T04:34:21.290Z,87903.00
2024-03-12T04:35:28.584Z,87901.00
2024-03-12T04:36:28.626Z,87902.00
2024-03-12T04:37:28.602Z,87903.00
2024-03-12T04:38:28.601Z,87900.00
2024-03-12T04:39:28.644Z,87901.00
2024-03-12T04:40:28.684Z,87902.00
2024-03-12T04:41:28.616Z,87902.00
2024-03-12T04:42:28.700Z,87899.00
2024-03-12T04:43:28.640Z,87901.00
2024-03-12T04:44:28.656Z,87903.00
2024-03-12T04:45:28.684Z,87904.00
2024-03-12T04:46:28.662Z,87903.00
2024-03-12T04:47:28.739Z,87905.00
2024-03-12T04:48:28.790Z,87906.00
2024-03-12T04:49:28.699Z,87908.00
2024-03-12T04:50:28.698Z,87907.00
2024-03-12T04:51:28.718Z,87912.00
2024-03-12T04:52:28.723Z,87911.00
2024-03-12T04:53:28.725Z,87912.00
2024-03-12T04:54:28.764Z,87913.00
2024-03-12T04:55:28.735Z,87913.00
2024-03-12T04:56:28.738Z,87915.00
2024-03-12T04:57:28.766Z,87915.00
2024-03-12T04:58:28.749Z,87913.00
2024-03-12T04:59:28.778Z,87915.00
2024-03-12T05:00:32.392Z,87918.00
2024-03-12T05:01:28.855Z,87919.00
2024-03-12T05:02:28.787Z,87922.00
2024-03-12T05:03:28.812Z,87924.00
2024-03-12T05:04:28.823Z,87924.00
2024-03-12T05:05:28.795Z,87926.00
2024-03-12T05:06:28.797Z,87924.00
2024-03-12T05:07:28.788Z,87926.00
2024-03-12T05:08:28.840Z,87927.00
2024-03-12T05:09:28.824Z,87929.00
2024-03-12T05:10:28.804Z,87932.00
2024-03-12T05:11:28.828Z,87931.00
2024-03-12T05:12:28.831Z,87933.00
2024-03-12T05:13:28.826Z,87932.00
2024-03-12T05:14:28.838Z,87933.00
2024-03-12T05:15:28.934Z,87931.00
2024-03-12T05:16:28.869Z,87932.00
2024-03-12T05:17:28.870Z,87938.00
2024-03-12T05:18:28.899Z,87939.00
2024-03-12T05:19:28.866Z,87940.00
2024-03-12T05:20:28.923Z,87943.00
2024-03-12T05:21:31.471Z,87944.00
2024-03-12T05:22:28.891Z,87944.00
2024-03-12T05:23:28.890Z,87946.00
2024-03-12T05:24:28.921Z,87947.00
2024-03-12T05:25:28.898Z,87948.00
2024-03-12T05:26:28.906Z,87949.00
2024-03-12T05:27:28.936Z,87949.00
2024-03-12T05:28:28.931Z,87954.00
2024-03-12T05:29:28.925Z,87958.00
2024-03-12T05:30:28.945Z,87959.00
2024-03-12T05:31:28.936Z,87958.00
2024-03-12T05:32:28.952Z,87963.00
2024-03-12T05:33:28.961Z,87966.00
2024-03-12T05:34:28.966Z,87967.00
2024-03-12T05:35:28.960Z,87968.00
2024-03-12T05:36:28.966Z,87968.00
2024-03-12T05:37:28.981Z,87968.00
2024-03-12T05:38:28.960Z,87965.00
2024-03-12T05:39:29.032Z,87960.00
2024-03-12T05:40:28.968Z,87963.00
2024-03-12T05:41:28.974Z,87964.00
2024-03-12T05:42:28.993Z,87967.00
2024-03-12T05:43:28.987Z,87970.00
2024-03-12T05:44:28.987Z,87970.00
2024-03-12T05:45:29.083Z,87970.00
2024-03-12T05:46:29.091Z,87968.00
2024-03-12T05:47:29.029Z,87968.00
2024-03-12T05:48:29.026Z,87971.00
2024-03-12T05:49:29.038Z,87969.00
2024-03-12T05:50:29.039Z,87969.00
2024-03-12T05:51:29.096Z,87970.00
2024-03-12T05:52:29.176Z,87971.00
2024-03-12T05:53:29.055Z,87975.00
2024-03-12T05:54:29.080Z,87976.00
2024-03-12T05:55:29.062Z,87983.00
2024-03-12T05:56:29.068Z,87983.00
2024-03-12T05:57:29.094Z,87985.00
2024-03-12T05:58:29.079Z,87988.00
2024-03-12T05:59:29.107Z,87988.00
2024-03-12T06:00:29.223Z,87988.00
2024-03-12T06:01:30.173Z,87989.00
2024-03-12T06:02:29.148Z,87992.00
2024-03-12T06:03:29.150Z,87992.00
2024-03-12T06:04:29.142Z,87992.00
2024-03-12T06:05:29.161Z,87995.00
2024-03-12T06:06:29.200Z,87994.00
2024-03-12T06:07:29.208Z,87994.00
2024-03-12T06:08:29.217Z,87994.00
2024-03-12T06:09:29.196Z,87992.00
2024-03-12T06:10:29.186Z,87990.00
2024-03-12T06:11:29.261Z,87994.00
2024-03-12T06:12:29.202Z,87996.00
2024-03-12T06:13:29.177Z,87997.00
2024-03-12T06:14:29.195Z,87999.00
2024-03-12T06:15:29.214Z,87999.00
2024-03-12T06:16:29.188Z,88001.00
2024-03-12T06:17:29.191Z,88001.00
2024-03-12T06:18:29.341Z,88004.00
2024-03-12T06:19:29.217Z,88006.00
2024-03-12T06:20:29.195Z,88006.00
2024-03-12T06:21:29.235Z,88007.00
2024-03-12T06:22:29.209Z,88007.00
2024-03-12T06:23:29.215Z,88009.00
2024-03-12T06:24:29.282Z,88008.00
2024-03-12T06:25:29.252Z,88009.00
2024-03-12T06:26:29.253Z,88013.00
2024-03-12T06:27:29.284Z,88015.00
2024-03-12T06:28:29.320Z,88014.00
2024-03-12T06:29:29.253Z,88014.00
2024-03-12T06:30:29.322Z,88017.00
2024-03-12T06:31:29.271Z,88019.00
2024-03-12T06:32:29.315Z,88021.00
2024-03-12T06:33:29.331Z,88025.00
2024-03-12T06:34:29.342Z,88026.00
2024-03-12T06:35:29.343Z,88029.00
2024-03-12T06:36:29.355Z,88030.00
2024-03-12T06:37:29.328Z,88031.00
2024-03-12T06:38:29.327Z,88032.00
2024-03-12T06:39:29.377Z,88032.00
2024-03-12T06:40:29.355Z,88035.00
2024-03-12T06:41:29.342Z,88036.00
2024-03-12T06:42:29.359Z,88039.00
2024-03-12T06:43:29.333Z,88040.00
2024-03-12T06:44:29.323Z,88040.00
2024-03-12T06:45:29.416Z,88044.00
2024-03-12T06:46:29.326Z,88043.00
2024-03-12T06:47:29.331Z,88044.00
2024-03-12T06:48:29.324Z,88047.00
2024-03-12T06:49:29.306Z,88047.00
2024-03-12T06:50:29.316Z,88049.00
2024-03-12T06:51:29.343Z,88049.00
2024-03-12T06:52:29.296Z,88048.00
2024-03-12T06:53:29.292Z,88047.00
2024-03-12T06:54:29.355Z,88047.00
2024-03-12T06:55:29.365Z,88052.00
2024-03-12T06:56:29.324Z,88052.00
2024-03-12T06:57:29.326Z,88052.00
2024-03-12T06:58:29.383Z,88055.00
2024-03-12T06:59:29.502Z,88055.00
2024-03-12T07:00:29.329Z,88057.00
2024-03-12T07:01:29.343Z,88060.00
2024-03-12T07:02:29.297Z,88063.00
2024-03-12T07:03:29.345Z,88059.00
2024-03-12T07:04:29.313Z,88059.00
2024-03-12T07:05:29.276Z,88059.00
2024-03-12T07:06:29.300Z,88061.00
2024-03-12T07:07:29.258Z,88064.00
2024-03-12T07:08:29.259Z,88065.00
2024-03-12T07:09:29.252Z,88063.00
2024-03-12T07:10:29.275Z,88068.00
2024-03-12T07:11:29.294Z,88069.00
2024-03-12T07:12:29.281Z,88071.00
2024-03-12T07:13:29.279Z,88071.00
2024-03-12T07:14:29.362Z,88072.00
2024-03-12T07:15:29.501Z,88075.00
2024-03-12T07:16:29.478Z,88075.00
2024-03-12T07:17:31.629Z,88077.00
2024-03-12T07:18:29.615Z,88081.00
2024-03-12T07:19:29.648Z,88079.00
2024-03-12T07:20:29.687Z,88080.00
2024-03-12T07:21:29.702Z,88079.00
2024-03-12T07:22:29.670Z,88080.00
2024-03-12T07:23:29.659Z,88078.00
2024-03-12T07:24:29.686Z,88077.00
2024-03-12T07:25:29.655Z,88079.00
2024-03-12T07:26:29.640Z,88082.00
2024-03-12T07:27:29.684Z,88081.00
2024-03-12T07:28:29.670Z,88079.00
2024-03-12T07:29:29.616Z,88079.00
2024-03-12T07:30:29.656Z,88079.00
2024-03-12T07:31:29.587Z,88081.00
2024-03-12T07:32:29.677Z,88082.00
2024-03-12T07:33:29.701Z,88081.00
2024-03-12T07:34:29.770Z,88084.00
2024-03-12T07:35:29.738Z,88084.00
2024-03-12T07:36:29.788Z,88085.00
2024-03-12T07:37:29.788Z,88083.00
2024-03-12T07:38:29.834Z,88083.00
2024-03-12T07:39:29.891Z,88083.00
2024-03-12T07:40:29.908Z,88085.00
2024-03-12T07:41:29.884Z,88086.00
2024-03-12T07:42:29.909Z,88087.00
2024-03-12T07:43:29.859Z,88088.00
2024-03-12T07:44:29.983Z,88091.00
2024-03-12T07:45:29.886Z,88091.00
2024-03-12T07:46:29.839Z,88093.00
2024-03-12T07:47:29.911Z,88093.00
2024-03-12T07:48:29.842Z,88090.00
2024-03-12T07:49:29.820Z,88095.00
2024-03-12T07:50:29.978Z,88096.00
2024-03-12T07:51:29.844Z,88099.00
2024-03-12T07:52:29.785Z,88097.00
2024-03-12T07:53:29.772Z,88096.00
2024-03-12T07:54:29.777Z,88100.00
2024-03-12T07:55:29.750Z,88100.00
2024-03-12T07:56:29.766Z,88102.00
2024-03-12T07:57:29.755Z,88101.00
2024-03-12T07:58:29.746Z,88103.00
2024-03-12T07:59:29.792Z,88101.00
2024-03-12T08:00:29.767Z,88104.00
2024-03-12T08:01:29.714Z,88105.00
2024-03-12T08:02:29.713Z,88106.00
2024-03-12T08:03:29.970Z,88106.00
2024-03-12T08:04:29.824Z,88106.00
2024-03-12T08:05:33.018Z,88103.00
2024-03-12T08:06:30.970Z,88105.00
2024-03-12T08:07:29.866Z,88108.00
2024-03-12T08:08:29.849Z,88112.00
2024-03-12T08:09:30.018Z,88113.00
2024-03-12T08:10:29.838Z,88116.00
2024-03-12T08:11:29.877Z,88117.00
2024-03-12T08:12:29.859Z,88118.00
2024-03-12T08:13:29.864Z,88119.00
2024-03-12T08:14:29.830Z,88123.00
2024-03-12T08:15:29.895Z,88121.00
2024-03-12T08:16:29.941Z,88124.00
2024-03-12T08:17:30.279Z,88122.00
2024-03-12T08:18:30.122Z,88124.00
2024-03-12T08:19:30.116Z,88122.00
2024-03-12T08:20:30.158Z,88124.00
2024-03-12T08:21:30.306Z,88123.00
2024-03-12T08:22:30.291Z,88124.00
2024-03-12T08:23:30.379Z,88127.00
2024-03-12T08:24:30.427Z,88125.00
2024-03-12T08:25:33.226Z,88123.00
2024-03-12T08:26:31.483Z,88124.00
2024-03-12T08:27:30.471Z,88128.00
2024-03-12T08:28:30.435Z,88128.00
2024-03-12T08:29:30.436Z,88130.00
2024-03-12T08:30:33.397Z,88127.00
2024-03-12T08:31:35.671Z,88129.00
2024-03-12T08:32:31.779Z,88130.00
2024-03-12T08:33:30.475Z,88130.00
2024-03-12T08:34:30.431Z,88133.00
2024-03-12T08:35:30.405Z,88134.00
2024-03-12T08:36:30.472Z,88135.00
2024-03-12T08:37:30.409Z,88136.00
2024-03-12T08:38:30.420Z,88139.00
2024-03-12T08:39:30.416Z,88138.00
2024-03-12T08:40:30.477Z,88137.00
2024-03-12T08:41:30.406Z,88139.00
2024-03-12T08:42:30.485Z,88139.00
2024-03-12T08:43:30.463Z,88137.00
2024-03-12T08:44:30.466Z,88139.00
2024-03-12T08:45:30.442Z,88142.00
2024-03-12T08:46:30.422Z,88145.00
2024-03-12T08:47:30.453Z,88145.00
2024-03-12T08:48:30.479Z,88147.00
2024-03-12T08:49:30.429Z,88149.00
2024-03-12T08:50:30.476Z,88149.00
2024-03-12T08:51:30.536Z,88151.00
2024-03-12T08:52:30.441Z,88150.00
2024-03-12T08:53:30.418Z,88151.00
2024-03-12T08:54:30.509Z,88147.00
2024-03-12T08:55:30.506Z,88154.00
2024-03-12T08:56:30.445Z,88152.00
2024-03-12T08:57:30.470Z,88153.00
2024-03-12T08:58:30.447Z,88151.00
2024-03-12T08:59:30.465Z,88154.00
2024-03-12T09:00:30.683Z,88154.00
2024-03-12T09:01:30.545Z,88156.00
2024-03-12T09:02:30.483Z,88156.00
2024-03-12T09:03:30.570Z,88157.00
2024-03-12T09:04:30.565Z,88161.00
2024-03-12T09:05:30.532Z,88159.00
2024-03-12T09:06:30.613Z,88162.00
2024-03-12T09:07:30.605Z,88158.00
2024-03-12T09:08:30.657Z,88164.00
2024-03-12T09:09:30.747Z,88166.00
2024-03-12T09:10:30.760Z,88166.00
2024-03-12T09:11:30.868Z,88167.00
2024-03-12T09:12:30.875Z,88167.00
2024-03-12T09:13:30.741Z,88169.00
2024-03-12T09:14:30.747Z,88167.00
2024-03-12T09:15:30.769Z,88166.00
2024-03-12T09:16:30.762Z,88167.00
2024-03-12T09:17:30.773Z,88170.00
2024-03-12T09:18:30.806Z,88162.00
2024-03-12T09:19:30.772Z,88166.00
2024-03-12T09:20:30.810Z,88166.00
2024-03-12T09:21:30.814Z,88167.00
2024-03-12T09:22:30.801Z,88169.00
2024-03-12T09:23:31.594Z,88170.00
2024-03-12T09:24:30.850Z,88171.00
2024-03-12T09:25:30.792Z,88170.00
2024-03-12T09:26:31.108Z,88171.00
2024-03-12T09:27:30.829Z,88171.00
2024-03-12T09:28:30.798Z,88171.00
2024-03-12T09:29:30.827Z,88173.00
2024-03-12T09:30:30.878Z,88175.00
2024-03-12T09:31:30.817Z,88171.00
2024-03-12T09:32:30.831Z,88169.00
2024-03-12T09:33:30.814Z,88170.00
2024-03-12T09:34:30.797Z,88168.00
2024-03-12T09:35:30.802Z,88168.00
2024-03-12T09:36:30.818Z,88170.00
2024-03-12T09:37:30.793Z,88171.00
2024-03-12T09:38:30.868Z,88169.00
2024-03-12T09:39:30.965Z,88170.00
2024-03-12T09:40:31.045Z,88170.00
2024-03-12T09:41:30.962Z,88173.00
2024-03-12T09:42:31.014Z,88170.00
2024-03-12T09:43:30.961Z,88167.00
2024-03-12T09:44:30.962Z,88173.00
2024-03-12T09:45:31.071Z,88173.00
2024-03-12T09:46:30.933Z,88173.00
2024-03-12T09:47:30.949Z,88175.00
2024-03-12T09:48:30.969Z,88174.00
2024-03-12T09:49:30.965Z,88176.00
2024-03-12T09:50:30.939Z,88177.00
2024-03-12T09:51:30.947Z,88176.00
2024-03-12T09:52:30.958Z,88178.00
2024-03-12T09:53:30.933Z,88180.00
2024-03-12T09:54:30.949Z,88178.00
2024-03-12T09:55:30.918Z,88183.00
2024-03-12T09:56:30.898Z,88179.00
2024-03-12T09:57:30.933Z,88179.00
2024-03-12T09:58:30.898Z,88180.00
2024-03-12T09:59:31.948Z,88173.00
2024-03-12T10:00:30.949Z,88173.00
2024-03-12T10:01:30.853Z,88176.00
2024-03-12T10:02:30.888Z,88178.00
2024-03-12T10:03:30.920Z,88174.00
2024-03-12T10:04:30.841Z,88172.00
2024-03-12T10:05:30.824Z,88172.00
2024-03-12T10:06:30.941Z,88171.00
2024-03-12T10:07:30.810Z,88172.00
2024-03-12T10:08:30.779Z,88173.00
2024-03-12T10:09:30.813Z,88175.00
2024-03-12T10:10:30.745Z,88173.00
2024-03-12T10:11:30.736Z,88170.00
2024-03-12T10:12:30.712Z,88177.00
2024-03-12T10:13:30.725Z,88182.00
2024-03-12T10:14:30.677Z,88178.00
2024-03-12T10:15:30.682Z,88178.00
2024-03-12T10:16:30.673Z,88182.00
2024-03-12T10:17:30.629Z,88178.00
2024-03-12T10:18:30.673Z,88180.00
2024-03-12T10:19:30.598Z,88173.00
2024-03-12T10:20:30.584Z,88176.00
2024-03-12T10:21:30.638Z,88179.00
2024-03-12T10:22:30.544Z,88176.00
2024-03-12T10:23:30.525Z,88184.00
2024-03-12T10:24:30.633Z,88178.00
2024-03-12T10:25:30.628Z,88177.00
2024-03-12T10:26:30.691Z,88174.00
2024-03-12T10:27:30.773Z,88174.00
2024-03-12T10:28:30.812Z,88172.00
2024-03-12T10:29:30.859Z,88174.00
2024-03-12T10:30:30.890Z,88174.00
2024-03-12T10:31:30.922Z,88175.00
2024-03-12T10:32:31.119Z,88180.00
2024-03-12T10:33:31.060Z,88177.00
2024-03-12T10:34:31.007Z,88177.00
2024-03-12T10:35:30.976Z,88179.00
2024-03-12T10:36:31.015Z,88178.00
2024-03-12T10:37:30.995Z,88179.00
2024-03-12T10:38:30.933Z,88182.00
2024-03-12T10:39:30.978Z,88179.00
2024-03-12T10:40:31.017Z,88176.00
2024-03-12T10:41:30.905Z,88180.00
2024-03-12T10:42:30.918Z,88175.00
2024-03-12T10:43:30.884Z,88177.00
2024-03-12T10:44:30.882Z,88178.00
2024-03-12T10:45:31.020Z,88177.00
2024-03-12T10:46:30.976Z,88176.00
2024-03-12T10:47:31.062Z,88176.00
2024-03-12T10:48:31.066Z,88174.00
2024-03-12T10:49:31.098Z,88173.00
2024-03-12T10:50:31.140Z,88173.00
2024-03-12T10:51:31.175Z,88172.00
2024-03-12T10:52:31.157Z,88169.00
2024-03-12T10:53:32.480Z,88170.00
2024-03-12T10:54:34.416Z,88171.00
2024-03-12T10:55:32.243Z,88170.00
2024-03-12T10:56:31.200Z,88170.00
2024-03-12T10:57:31.195Z,88170.00
2024-03-12T10:58:31.164Z,88169.00
2024-03-12T10:59:31.138Z,88168.00
2024-03-12T11:00:31.164Z,88169.00
2024-03-12T11:01:31.296Z,88166.00
2024-03-12T11:02:31.107Z,88167.00
2024-03-12T11:03:31.126Z,88167.00
2024-03-12T11:04:31.070Z,88165.00
2024-03-12T11:05:31.031Z,88168.00
2024-03-12T11:06:31.136Z,88168.00
2024-03-12T11:07:31.007Z,88168.00
2024-03-12T11:08:31.006Z,88168.00
2024-03-12T11:09:31.043Z,88168.00
2024-03-12T11:10:31.007Z,88165.00
2024-03-12T11:11:31.034Z,88165.00
2024-03-12T11:12:30.985Z,88167.00
2024-03-12T11:13:30.960Z,88168.00
2024-03-12T11:14:30.988Z,88168.00
2024-03-12T11:15:31.032Z,88165.00
2024-03-12T11:16:31.039Z,88165.00
2024-03-12T11:17:31.051Z,88168.00
2024-03-12T11:18:31.096Z,88170.00
2024-03-12T11:19:31.153Z,88169.00
2024-03-12T11:20:31.118Z,88170.00
2024-03-12T11:21:31.111Z,88171.00
2024-03-12T11:22:31.152Z,88172.00
2024-03-12T11:23:31.170Z,88171.00
2024-03-12T11:24:31.594Z,88172.00
2024-03-12T11:25:31.139Z,88173.00
2024-03-12T11:27:31.175Z,88170.00
2024-03-12T11:28:31.105Z,88172.00
2024-03-12T11:29:31.083Z,88172.00
2024-03-12T11:30:31.103Z,88171.00
2024-03-12T11:31:31.078Z,88175.00
2024-03-12T11:32:31.078Z,88173.00
2024-03-12T11:33:31.058Z,88173.00
2024-03-12T11:34:31.038Z,88172.00
2024-03-12T11:35:31.003Z,88174.00
2024-03-12T11:36:31.092Z,88175.00
2024-03-12T11:37:30.994Z,88173.00
2024-03-12T11:38:31.136Z,88173.00
2024-03-12T11:39:31.171Z,88175.00
2024-03-12T11:40:30.957Z,88173.00
2024-03-12T11:41:30.990Z,88171.00
2024-03-12T11:42:31.011Z,88179.00
2024-03-12T11:43:30.924Z,88172.00
2024-03-12T11:44:30.926Z,88173.00
2024-03-12T11:45:30.901Z,88170.00